sensor_id;sensor_type;location;lat;lon;timestamp;P1;P2;P0
30342;PMS5003;17145;49.902;8.680;2023-01-13T00:00:56;8;6;
30342;PMS5003;17145;49.902;8.680;2023-01-13T00:03:24;8;6;
30342;PMS5003;17145;49.902;8.680;2023-01-13T00:05:51;8;6;
30342;PMS5003;17145;49.902;8.680;2023-01-13T00:08:18;7;7;
30342;PMS5003;17145;49.902;8.680;2023-01-13T00:10:46;4;3;
30342;PMS5003;17145;49.902;8.680;2023-01-13T00:13:13;6;4;
30342;PMS5003;17145;49.902;8.680;2023-01-13T00:15:41;7;6;
30342;PMS5003;17145;49.902;8.680;2023-01-13T00:18:08;8;8;
30342;PMS5003;17145;49.902;8.680;2023-01-13T00:20:36;8;7;
30342;PMS5003;17145;49.902;8.680;2023-01-13T00:23:03;7;7;
30342;PMS5003;17145;49.902;8.680;2023-01-13T00:25:31;6;6;
30342;PMS5003;17145;49.902;8.680;2023-01-13T00:27:58;9;8;
30342;PMS5003;17145;49.902;8.680;2023-01-13T00:30:25;9;7;
30342;PMS5003;17145;49.902;8.680;2023-01-13T00:32:53;6;4;
30342;PMS5003;17145;49.902;8.680;2023-01-13T00:35:20;7;6;
30342;PMS5003;17145;49.902;8.680;2023-01-13T00:37:47;14;8;
30342;PMS5003;17145;49.902;8.680;2023-01-13T00:40:15;6;6;
30342;PMS5003;17145;49.902;8.680;2023-01-13T00:42:43;7;6;
30342;PMS5003;17145;49.902;8.680;2023-01-13T00:45:10;6;6;
30342;PMS5003;17145;49.902;8.680;2023-01-13T00:47:37;4;4;
30342;PMS5003;17145;49.902;8.680;2023-01-13T00:50:05;8;7;
30342;PMS5003;17145;49.902;8.680;2023-01-13T00:52:33;8;6;
30342;PMS5003;17145;49.902;8.680;2023-01-13T00:55:00;11;8;
30342;PMS5003;17145;49.902;8.680;2023-01-13T00:57:27;11;7;
30342;PMS5003;17145;49.902;8.680;2023-01-13T00:59:55;8;7;
30342;PMS5003;17145;49.902;8.680;2023-01-13T01:02:22;9;9;
30342;PMS5003;17145;49.902;8.680;2023-01-13T01:04:50;9;9;
30342;PMS5003;17145;49.902;8.680;2023-01-13T01:07:17;12;8;
30342;PMS5003;17145;49.902;8.680;2023-01-13T01:09:44;8;7;
30342;PMS5003;17145;49.902;8.680;2023-01-13T01:12:12;12;9;
30342;PMS5003;17145;49.902;8.680;2023-01-13T01:14:39;7;6;
30342;PMS5003;17145;49.902;8.680;2023-01-13T01:17:06;8;7;
30342;PMS5003;17145;49.902;8.680;2023-01-13T01:19:34;7;7;
30342;PMS5003;17145;49.902;8.680;2023-01-13T01:22:02;6;6;
30342;PMS5003;17145;49.902;8.680;2023-01-13T01:24:29;9;4;
30342;PMS5003;17145;49.902;8.680;2023-01-13T01:26:56;6;4;
30342;PMS5003;17145;49.902;8.680;2023-01-13T01:29:24;4;4;
30342;PMS5003;17145;49.902;8.680;2023-01-13T01:31:51;10;8;
30342;PMS5003;17145;49.902;8.680;2023-01-13T01:34:19;6;4;
30342;PMS5003;17145;49.902;8.680;2023-01-13T01:36:46;8;7;
30342;PMS5003;17145;49.902;8.680;2023-01-13T01:39:14;8;4;
30342;PMS5003;17145;49.902;8.680;2023-01-13T01:41:41;6;6;
30342;PMS5003;17145;49.902;8.680;2023-01-13T01:46:45;7;6;
30342;PMS5003;17145;49.902;8.680;2023-01-13T01:49:14;6;4;
30342;PMS5003;17145;49.902;8.680;2023-01-13T01:51:45;8;6;
30342;PMS5003;17145;49.902;8.680;2023-01-13T01:54:19;8;6;
30342;PMS5003;17145;49.902;8.680;2023-01-13T01:56:49;4;3;
30342;PMS5003;17145;49.902;8.680;2023-01-13T01:59:17;4;4;
30342;PMS5003;17145;49.902;8.680;2023-01-13T02:01:45;3;3;
30342;PMS5003;17145;49.902;8.680;2023-01-13T02:04:14;6;4;
30342;PMS5003;17145;49.902;8.680;2023-01-13T02:06:46;7;6;
30342;PMS5003;17145;49.902;8.680;2023-01-13T02:09:14;4;4;
30342;PMS5003;17145;49.902;8.680;2023-01-13T02:11:43;3;3;
30342;PMS5003;17145;49.902;8.680;2023-01-13T02:14:10;4;4;
30342;PMS5003;17145;49.902;8.680;2023-01-13T02:16:38;6;4;
30342;PMS5003;17145;49.902;8.680;2023-01-13T02:19:17;4;3;
30342;PMS5003;17145;49.902;8.680;2023-01-13T02:27:30;7;6;
30342;PMS5003;17145;49.902;8.680;2023-01-13T02:30:13;6;4;
30342;PMS5003;17145;49.902;8.680;2023-01-13T02:32:49;4;4;
30342;PMS5003;17145;49.902;8.680;2023-01-13T02:35:27;3;3;
30342;PMS5003;17145;49.902;8.680;2023-01-13T02:38:01;8;4;
30342;PMS5003;17145;49.902;8.680;2023-01-13T02:40:32;9;6;
30342;PMS5003;17145;49.902;8.680;2023-01-13T02:43:04;7;4;
30342;PMS5003;17145;49.902;8.680;2023-01-13T02:45:40;6;6;
30342;PMS5003;17145;49.902;8.680;2023-01-13T02:48:14;7;6;
30342;PMS5003;17145;49.902;8.680;2023-01-13T02:50:48;3;3;
30342;PMS5003;17145;49.902;8.680;2023-01-13T02:53:22;4;3;
30342;PMS5003;17145;49.902;8.680;2023-01-13T02:55:54;6;4;
30342;PMS5003;17145;49.902;8.680;2023-01-13T02:58:25;7;4;
30342;PMS5003;17145;49.902;8.680;2023-01-13T03:00:55;6;4;
30342;PMS5003;17145;49.902;8.680;2023-01-13T03:03:22;3;3;
30342;PMS5003;17145;49.902;8.680;2023-01-13T03:05:51;4;4;
30342;PMS5003;17145;49.902;8.680;2023-01-13T03:08:27;6;6;
30342;PMS5003;17145;49.902;8.680;2023-01-13T03:11:04;7;6;
30342;PMS5003;17145;49.902;8.680;2023-01-13T03:16:22;3;3;
30342;PMS5003;17145;49.902;8.680;2023-01-13T03:19:00;3;3;
30342;PMS5003;17145;49.902;8.680;2023-01-13T03:21:38;4;4;
30342;PMS5003;17145;49.902;8.680;2023-01-13T03:24:12;4;3;
30342;PMS5003;17145;49.902;8.680;2023-01-13T03:26:44;4;4;
30342;PMS5003;17145;49.902;8.680;2023-01-13T03:29:17;4;3;
30342;PMS5003;17145;49.902;8.680;2023-01-13T03:31:51;4;4;
30342;PMS5003;17145;49.902;8.680;2023-01-13T03:34:25;7;6;
30342;PMS5003;17145;49.902;8.680;2023-01-13T03:36:58;4;4;
30342;PMS5003;17145;49.902;8.680;2023-01-13T03:39:32;6;6;
30342;PMS5003;17145;49.902;8.680;2023-01-13T03:42:03;4;4;
30342;PMS5003;17145;49.902;8.680;2023-01-13T03:44:37;9;6;
30342;PMS5003;17145;49.902;8.680;2023-01-13T03:47:11;4;4;
30342;PMS5003;17145;49.902;8.680;2023-01-13T03:49:45;7;6;
30342;PMS5003;17145;49.902;8.680;2023-01-13T03:52:21;11;7;
30342;PMS5003;17145;49.902;8.680;2023-01-13T03:54:53;8;7;
30342;PMS5003;17145;49.902;8.680;2023-01-13T03:57:26;8;6;
30342;PMS5003;17145;49.902;8.680;2023-01-13T04:00:00;4;4;
30342;PMS5003;17145;49.902;8.680;2023-01-13T04:02:35;9;7;
30342;PMS5003;17145;49.902;8.680;2023-01-13T04:05:10;7;6;
30342;PMS5003;17145;49.902;8.680;2023-01-13T04:07:40;7;7;
30342;PMS5003;17145;49.902;8.680;2023-01-13T04:10:17;7;4;
30342;PMS5003;17145;49.902;8.680;2023-01-13T04:12:50;3;3;
30342;PMS5003;17145;49.902;8.680;2023-01-13T04:15:23;8;7;
30342;PMS5003;17145;49.902;8.680;2023-01-13T04:17:52;6;6;
30342;PMS5003;17145;49.902;8.680;2023-01-13T04:20:20;8;6;
30342;PMS5003;17145;49.902;8.680;2023-01-13T04:22:48;7;7;
30342;PMS5003;17145;49.902;8.680;2023-01-13T04:25:15;4;4;
30342;PMS5003;17145;49.902;8.680;2023-01-13T04:27:42;4;3;
30342;PMS5003;17145;49.902;8.680;2023-01-13T04:30:10;6;6;
30342;PMS5003;17145;49.902;8.680;2023-01-13T04:32:38;9;6;
30342;PMS5003;17145;49.902;8.680;2023-01-13T04:35:06;7;6;
30342;PMS5003;17145;49.902;8.680;2023-01-13T04:37:33;4;4;
30342;PMS5003;17145;49.902;8.680;2023-01-13T04:40:01;6;6;
30342;PMS5003;17145;49.902;8.680;2023-01-13T04:42:28;4;4;
30342;PMS5003;17145;49.902;8.680;2023-01-13T04:44:55;7;6;
30342;PMS5003;17145;49.902;8.680;2023-01-13T04:47:23;4;4;
30342;PMS5003;17145;49.902;8.680;2023-01-13T04:49:50;4;4;
30342;PMS5003;17145;49.902;8.680;2023-01-13T04:52:18;6;4;
30342;PMS5003;17145;49.902;8.680;2023-01-13T04:54:45;4;3;
30342;PMS5003;17145;49.902;8.680;2023-01-13T04:57:12;4;4;
30342;PMS5003;17145;49.902;8.680;2023-01-13T04:59:40;6;4;
30342;PMS5003;17145;49.902;8.680;2023-01-13T05:02:07;7;4;
30342;PMS5003;17145;49.902;8.680;2023-01-13T05:04:34;4;4;
30342;PMS5003;17145;49.902;8.680;2023-01-13T05:07:02;3;3;
30342;PMS5003;17145;49.902;8.680;2023-01-13T05:09:29;4;4;
30342;PMS5003;17145;49.902;8.680;2023-01-13T05:11:57;4;3;
30342;PMS5003;17145;49.902;8.680;2023-01-13T05:14:24;6;4;
30342;PMS5003;17145;49.902;8.680;2023-01-13T05:16:52;9;4;
30342;PMS5003;17145;49.902;8.680;2023-01-13T05:19:21;6;4;
30342;PMS5003;17145;49.902;8.680;2023-01-13T05:21:49;4;3;
30342;PMS5003;17145;49.902;8.680;2023-01-13T05:24:16;4;3;
30342;PMS5003;17145;49.902;8.680;2023-01-13T05:26:44;4;3;
30342;PMS5003;17145;49.902;8.680;2023-01-13T05:29:11;4;4;
30342;PMS5003;17145;49.902;8.680;2023-01-13T05:31:38;7;4;
30342;PMS5003;17145;49.902;8.680;2023-01-13T05:34:06;6;3;
30342;PMS5003;17145;49.902;8.680;2023-01-13T05:36:33;6;3;
30342;PMS5003;17145;49.902;8.680;2023-01-13T05:39:01;4;4;
30342;PMS5003;17145;49.902;8.680;2023-01-13T05:41:28;7;6;
30342;PMS5003;17145;49.902;8.680;2023-01-13T05:43:56;3;3;
30342;PMS5003;17145;49.902;8.680;2023-01-13T05:46:23;3;3;
30342;PMS5003;17145;49.902;8.680;2023-01-13T05:48:50;6;4;
30342;PMS5003;17145;49.902;8.680;2023-01-13T05:51:18;6;6;
30342;PMS5003;17145;49.902;8.680;2023-01-13T05:53:45;4;3;
30342;PMS5003;17145;49.902;8.680;2023-01-13T05:56:13;7;6;
30342;PMS5003;17145;49.902;8.680;2023-01-13T05:58:40;4;4;
30342;PMS5003;17145;49.902;8.680;2023-01-13T06:01:08;4;4;
30342;PMS5003;17145;49.902;8.680;2023-01-13T06:03:35;4;4;
30342;PMS5003;17145;49.902;8.680;2023-01-13T06:06:03;4;4;
30342;PMS5003;17145;49.902;8.680;2023-01-13T06:08:31;8;6;
30342;PMS5003;17145;49.902;8.680;2023-01-13T06:10:58;8;7;
30342;PMS5003;17145;49.902;8.680;2023-01-13T06:13:26;7;6;
30342;PMS5003;17145;49.902;8.680;2023-01-13T06:15:54;6;6;
30342;PMS5003;17145;49.902;8.680;2023-01-13T06:18:22;6;6;
30342;PMS5003;17145;49.902;8.680;2023-01-13T06:20:50;7;7;
30342;PMS5003;17145;49.902;8.680;2023-01-13T06:23:17;8;7;
30342;PMS5003;17145;49.902;8.680;2023-01-13T06:25:45;8;6;
30342;PMS5003;17145;49.902;8.680;2023-01-13T06:28:17;4;3;
30342;PMS5003;17145;49.902;8.680;2023-01-13T06:30:45;4;4;
30342;PMS5003;17145;49.902;8.680;2023-01-13T06:33:17;4;4;
30342;PMS5003;17145;49.902;8.680;2023-01-13T06:35:49;4;4;
30342;PMS5003;17145;49.902;8.680;2023-01-13T06:38:20;3;3;
30342;PMS5003;17145;49.902;8.680;2023-01-13T06:40:49;4;4;
30342;PMS5003;17145;49.902;8.680;2023-01-13T06:43:17;4;3;
30342;PMS5003;17145;49.902;8.680;2023-01-13T06:45:46;4;4;
30342;PMS5003;17145;49.902;8.680;2023-01-13T06:48:16;4;4;
30342;PMS5003;17145;49.902;8.680;2023-01-13T06:50:45;4;4;
30342;PMS5003;17145;49.902;8.680;2023-01-13T06:53:13;8;3;
30342;PMS5003;17145;49.902;8.680;2023-01-13T06:55:40;7;4;
30342;PMS5003;17145;49.902;8.680;2023-01-13T06:58:07;4;3;
30342;PMS5003;17145;49.902;8.680;2023-01-13T07:00:35;6;3;
30342;PMS5003;17145;49.902;8.680;2023-01-13T07:03:07;3;3;
30342;PMS5003;17145;49.902;8.680;2023-01-13T07:05:36;6;6;
30342;PMS5003;17145;49.902;8.680;2023-01-13T07:08:04;7;6;
30342;PMS5003;17145;49.902;8.680;2023-01-13T07:10:33;4;3;
30342;PMS5003;17145;49.902;8.680;2023-01-13T07:13:02;3;3;
30342;PMS5003;17145;49.902;8.680;2023-01-13T07:15:30;6;4;
30342;PMS5003;17145;49.902;8.680;2023-01-13T07:17:58;4;3;
30342;PMS5003;17145;49.902;8.680;2023-01-13T07:20:26;3;3;
30342;PMS5003;17145;49.902;8.680;2023-01-13T07:22:54;4;3;
30342;PMS5003;17145;49.902;8.680;2023-01-13T07:25:23;3;3;
30342;PMS5003;17145;49.902;8.680;2023-01-13T07:27:51;4;4;
30342;PMS5003;17145;49.902;8.680;2023-01-13T07:30:18;14;7;
30342;PMS5003;17145;49.902;8.680;2023-01-13T07:32:45;3;3;
30342;PMS5003;17145;49.902;8.680;2023-01-13T07:35:13;6;4;
30342;PMS5003;17145;49.902;8.680;2023-01-13T07:37:40;4;3;
30342;PMS5003;17145;49.902;8.680;2023-01-13T07:40:08;6;4;
30342;PMS5003;17145;49.902;8.680;2023-01-13T07:42:37;4;4;
30342;PMS5003;17145;49.902;8.680;2023-01-13T07:45:05;4;3;
30342;PMS5003;17145;49.902;8.680;2023-01-13T07:47:33;4;4;
30342;PMS5003;17145;49.902;8.680;2023-01-13T07:50:01;4;3;
30342;PMS5003;17145;49.902;8.680;2023-01-13T07:52:29;6;4;
30342;PMS5003;17145;49.902;8.680;2023-01-13T07:54:56;3;3;
30342;PMS5003;17145;49.902;8.680;2023-01-13T07:57:24;3;3;
30342;PMS5003;17145;49.902;8.680;2023-01-13T07:59:51;6;4;
30342;PMS5003;17145;49.902;8.680;2023-01-13T08:02:18;7;4;
30342;PMS5003;17145;49.902;8.680;2023-01-13T08:04:46;4;4;
30342;PMS5003;17145;49.902;8.680;2023-01-13T08:07:13;7;4;
30342;PMS5003;17145;49.902;8.680;2023-01-13T08:09:41;5;5;
30342;PMS5003;17145;49.902;8.680;2023-01-13T08:12:08;7;7;
30342;PMS5003;17145;49.902;8.680;2023-01-13T08:14:35;8;8;
30342;PMS5003;17145;49.902;8.680;2023-01-13T08:17:03;12;9;
30342;PMS5003;17145;49.902;8.680;2023-01-13T08:19:31;13;13;
30342;PMS5003;17145;49.902;8.680;2023-01-13T08:21:58;9;9;
30342;PMS5003;17145;49.902;8.680;2023-01-13T08:24:26;11;9;
30342;PMS5003;17145;49.902;8.680;2023-01-13T08:26:53;8;7;
30342;PMS5003;17145;49.902;8.680;2023-01-13T08:29:21;8;8;
30342;PMS5003;17145;49.902;8.680;2023-01-13T08:31:48;12;12;
30342;PMS5003;17145;49.902;8.680;2023-01-13T08:34:15;12;11;
30342;PMS5003;17145;49.902;8.680;2023-01-13T08:36:43;14;11;
30342;PMS5003;17145;49.902;8.680;2023-01-13T08:39:10;12;11;
30342;PMS5003;17145;49.902;8.680;2023-01-13T08:41:38;11;11;
30342;PMS5003;17145;49.902;8.680;2023-01-13T08:44:05;11;9;
30342;PMS5003;17145;49.902;8.680;2023-01-13T08:46:32;9;8;
30342;PMS5003;17145;49.902;8.680;2023-01-13T08:49:00;14;11;
30342;PMS5003;17145;49.902;8.680;2023-01-13T08:51:27;9;8;
30342;PMS5003;17145;49.902;8.680;2023-01-13T08:53:55;11;11;
30342;PMS5003;17145;49.902;8.680;2023-01-13T08:56:22;13;12;
30342;PMS5003;17145;49.902;8.680;2023-01-13T08:58:50;16;14;
30342;PMS5003;17145;49.902;8.680;2023-01-13T09:01:18;12;11;
30342;PMS5003;17145;49.902;8.680;2023-01-13T09:03:48;9;9;
30342;PMS5003;17145;49.902;8.680;2023-01-13T09:06:16;8;7;
30342;PMS5003;17145;49.902;8.680;2023-01-13T09:08:43;13;12;
30342;PMS5003;17145;49.902;8.680;2023-01-13T09:11:12;17;17;
30342;PMS5003;17145;49.902;8.680;2023-01-13T09:13:45;23;22;
30342;PMS5003;17145;49.902;8.680;2023-01-13T09:16:12;11;11;
30342;PMS5003;17145;49.902;8.680;2023-01-13T09:18:40;6;3;
30342;PMS5003;17145;49.902;8.680;2023-01-13T09:21:07;4;4;
30342;PMS5003;17145;49.902;8.680;2023-01-13T09:23:36;7;7;
30342;PMS5003;17145;49.902;8.680;2023-01-13T09:26:03;6;3;
30342;PMS5003;17145;49.902;8.680;2023-01-13T09:28:31;4;4;
30342;PMS5003;17145;49.902;8.680;2023-01-13T09:30:59;4;3;
30342;PMS5003;17145;49.902;8.680;2023-01-13T09:33:26;3;3;
30342;PMS5003;17145;49.902;8.680;2023-01-13T09:35:56;4;3;
30342;PMS5003;17145;49.902;8.680;2023-01-13T09:38:24;2;2;
30342;PMS5003;17145;49.902;8.680;2023-01-13T09:40:51;4;3;
30342;PMS5003;17145;49.902;8.680;2023-01-13T09:43:20;4;4;
30342;PMS5003;17145;49.902;8.680;2023-01-13T09:45:52;7;6;
30342;PMS5003;17145;49.902;8.680;2023-01-13T09:48:27;7;7;
30342;PMS5003;17145;49.902;8.680;2023-01-13T09:50:59;9;9;
30342;PMS5003;17145;49.902;8.680;2023-01-13T09:53:33;11;9;
30342;PMS5003;17145;49.902;8.680;2023-01-13T09:56:06;7;7;
30342;PMS5003;17145;49.902;8.680;2023-01-13T09:58:36;9;8;
30342;PMS5003;17145;49.902;8.680;2023-01-13T10:01:06;11;11;
30342;PMS5003;17145;49.902;8.680;2023-01-13T10:03:43;6;6;
30342;PMS5003;17145;49.902;8.680;2023-01-13T10:06:12;7;6;
30342;PMS5003;17145;49.902;8.680;2023-01-13T10:08:44;7;6;
30342;PMS5003;17145;49.902;8.680;2023-01-13T10:11:16;6;4;
30342;PMS5003;17145;49.902;8.680;2023-01-13T10:13:45;6;3;
30342;PMS5003;17145;49.902;8.680;2023-01-13T10:16:21;4;4;
30342;PMS5003;17145;49.902;8.680;2023-01-13T10:18:59;4;4;
30342;PMS5003;17145;49.902;8.680;2023-01-13T10:21:44;5;5;
30342;PMS5003;17145;49.902;8.680;2023-01-13T10:24:25;4;4;
30342;PMS5003;17145;49.902;8.680;2023-01-13T10:27:01;4;4;
30342;PMS5003;17145;49.902;8.680;2023-01-13T10:29:33;7;6;
30342;PMS5003;17145;49.902;8.680;2023-01-13T10:32:02;6;6;
30342;PMS5003;17145;49.902;8.680;2023-01-13T10:34:30;8;6;
30342;PMS5003;17145;49.902;8.680;2023-01-13T10:37:03;8;4;
30342;PMS5003;17145;49.902;8.680;2023-01-13T10:39:38;4;4;
30342;PMS5003;17145;49.902;8.680;2023-01-13T10:42:11;4;4;
30342;PMS5003;17145;49.902;8.680;2023-01-13T10:44:47;8;6;
30342;PMS5003;17145;49.902;8.680;2023-01-13T10:47:18;3;3;
30342;PMS5003;17145;49.902;8.680;2023-01-13T10:52:27;4;4;
30342;PMS5003;17145;49.902;8.680;2023-01-13T10:54:56;6;6;
30342;PMS5003;17145;49.902;8.680;2023-01-13T10:57:24;3;3;
30342;PMS5003;17145;49.902;8.680;2023-01-13T10:59:53;6;6;
30342;PMS5003;17145;49.902;8.680;2023-01-13T11:02:25;4;4;
30342;PMS5003;17145;49.902;8.680;2023-01-13T11:04:57;6;6;
30342;PMS5003;17145;49.902;8.680;2023-01-13T11:07:32;11;9;
30342;PMS5003;17145;49.902;8.680;2023-01-13T11:10:04;7;7;
30342;PMS5003;17145;49.902;8.680;2023-01-13T11:12:42;7;7;
30342;PMS5003;17145;49.902;8.680;2023-01-13T11:15:14;11;9;
30342;PMS5003;17145;49.902;8.680;2023-01-13T11:17:46;13;13;
30342;PMS5003;17145;49.902;8.680;2023-01-13T11:20:18;9;9;
30342;PMS5003;17145;49.902;8.680;2023-01-13T11:22:52;7;7;
30342;PMS5003;17145;49.902;8.680;2023-01-13T11:25:22;7;7;
30342;PMS5003;17145;49.902;8.680;2023-01-13T11:27:53;8;8;
30342;PMS5003;17145;49.902;8.680;2023-01-13T11:30:28;6;6;
30342;PMS5003;17145;49.902;8.680;2023-01-13T11:33:10;8;8;
30342;PMS5003;17145;49.902;8.680;2023-01-13T11:35:50;12;12;
30342;PMS5003;17145;49.902;8.680;2023-01-13T11:38:30;8;8;
30342;PMS5003;17145;49.902;8.680;2023-01-13T11:41:04;6;6;
30342;PMS5003;17145;49.902;8.680;2023-01-13T11:43:41;6;4;
30342;PMS5003;17145;49.902;8.680;2023-01-13T11:46:17;4;4;
30342;PMS5003;17145;49.902;8.680;2023-01-13T11:48:48;7;7;
30342;PMS5003;17145;49.902;8.680;2023-01-13T11:51:19;6;6;
30342;PMS5003;17145;49.902;8.680;2023-01-13T11:53:59;8;8;
30342;PMS5003;17145;49.902;8.680;2023-01-13T11:56:44;6;6;
30342;PMS5003;17145;49.902;8.680;2023-01-13T11:59:33;6;4;
30342;PMS5003;17145;49.902;8.680;2023-01-13T12:02:19;7;6;
30342;PMS5003;17145;49.902;8.680;2023-01-13T12:04:57;7;7;
30342;PMS5003;17145;49.902;8.680;2023-01-13T12:07:35;7;6;
30342;PMS5003;17145;49.902;8.680;2023-01-13T12:10:12;7;7;
30342;PMS5003;17145;49.902;8.680;2023-01-13T12:12:47;6;6;
30342;PMS5003;17145;49.902;8.680;2023-01-13T12:15:29;9;9;
30342;PMS5003;17145;49.902;8.680;2023-01-13T12:18:11;6;6;
30342;PMS5003;17145;49.902;8.680;2023-01-13T12:20:49;6;6;
30342;PMS5003;17145;49.902;8.680;2023-01-13T12:23:28;7;6;
30342;PMS5003;17145;49.902;8.680;2023-01-13T12:26:00;4;4;
30342;PMS5003;17145;49.902;8.680;2023-01-13T12:28:36;7;6;
30342;PMS5003;17145;49.902;8.680;2023-01-13T12:31:10;7;7;
30342;PMS5003;17145;49.902;8.680;2023-01-13T12:33:43;3;3;
30342;PMS5003;17145;49.902;8.680;2023-01-13T12:36:22;6;4;
30342;PMS5003;17145;49.902;8.680;2023-01-13T12:38:56;7;7;
30342;PMS5003;17145;49.902;8.680;2023-01-13T12:41:37;6;6;
30342;PMS5003;17145;49.902;8.680;2023-01-13T12:44:06;7;7;
30342;PMS5003;17145;49.902;8.680;2023-01-13T12:49:19;7;4;
30342;PMS5003;17145;49.902;8.680;2023-01-13T12:54:32;6;3;
30342;PMS5003;17145;49.902;8.680;2023-01-13T12:57:13;4;4;
30342;PMS5003;17145;49.902;8.680;2023-01-13T13:02:29;4;3;
30342;PMS5003;17145;49.902;8.680;2023-01-13T13:05:00;4;4;
30342;PMS5003;17145;49.902;8.680;2023-01-13T13:07:37;4;4;
30342;PMS5003;17145;49.902;8.680;2023-01-13T13:10:14;6;3;
30342;PMS5003;17145;49.902;8.680;2023-01-13T13:12:52;4;4;
30342;PMS5003;17145;49.902;8.680;2023-01-13T13:15:22;4;4;
30342;PMS5003;17145;49.902;8.680;2023-01-13T13:17:59;7;6;
30342;PMS5003;17145;49.902;8.680;2023-01-13T13:26:00;8;8;
30342;PMS5003;17145;49.902;8.680;2023-01-13T13:28:33;4;4;
30342;PMS5003;17145;49.902;8.680;2023-01-13T13:31:09;4;4;
30342;PMS5003;17145;49.902;8.680;2023-01-13T13:33:48;6;4;
30342;PMS5003;17145;49.902;8.680;2023-01-13T13:36:32;3;3;
30342;PMS5003;17145;49.902;8.680;2023-01-13T13:39:16;4;3;
30342;PMS5003;17145;49.902;8.680;2023-01-13T13:41:49;3;3;
30342;PMS5003;17145;49.902;8.680;2023-01-13T13:44:21;4;3;
30342;PMS5003;17145;49.902;8.680;2023-01-13T13:46:56;3;3;
30342;PMS5003;17145;49.902;8.680;2023-01-13T13:49:35;7;4;
30342;PMS5003;17145;49.902;8.680;2023-01-13T13:52:07;2;2;
30342;PMS5003;17145;49.902;8.680;2023-01-13T13:54:43;2;2;
30342;PMS5003;17145;49.902;8.680;2023-01-13T13:57:15;3;3;
30342;PMS5003;17145;49.902;8.680;2023-01-13T13:59:44;4;3;
30342;PMS5003;17145;49.902;8.680;2023-01-13T14:02:17;2;2;
30342;PMS5003;17145;49.902;8.680;2023-01-13T14:04:49;3;3;
30342;PMS5003;17145;49.902;8.680;2023-01-13T14:07:17;3;2;
30342;PMS5003;17145;49.902;8.680;2023-01-13T14:09:46;4;3;
30342;PMS5003;17145;49.902;8.680;2023-01-13T14:12:17;3;3;
30342;PMS5003;17145;49.902;8.680;2023-01-13T14:14:46;4;4;
30342;PMS5003;17145;49.902;8.680;2023-01-13T14:17:16;3;2;
30342;PMS5003;17145;49.902;8.680;2023-01-13T14:19:51;2;2;
30342;PMS5003;17145;49.902;8.680;2023-01-13T14:22:24;7;4;
30342;PMS5003;17145;49.902;8.680;2023-01-13T14:24:53;4;4;
30342;PMS5003;17145;49.902;8.680;2023-01-13T14:27:21;7;4;
30342;PMS5003;17145;49.902;8.680;2023-01-13T14:29:50;4;4;
30342;PMS5003;17145;49.902;8.680;2023-01-13T14:32:19;3;3;
30342;PMS5003;17145;49.902;8.680;2023-01-13T14:34:49;6;4;
30342;PMS5003;17145;49.902;8.680;2023-01-13T14:37:21;6;6;
30342;PMS5003;17145;49.902;8.680;2023-01-13T14:39:51;4;4;
30342;PMS5003;17145;49.902;8.680;2023-01-13T14:42:18;6;6;
30342;PMS5003;17145;49.902;8.680;2023-01-13T14:44:46;4;4;
30342;PMS5003;17145;49.902;8.680;2023-01-13T14:47:17;4;4;
30342;PMS5003;17145;49.902;8.680;2023-01-13T14:49:50;4;3;
30342;PMS5003;17145;49.902;8.680;2023-01-13T14:52:22;4;3;
30342;PMS5003;17145;49.902;8.680;2023-01-13T14:54:51;4;3;
30342;PMS5003;17145;49.902;8.680;2023-01-13T14:57:24;3;3;
30342;PMS5003;17145;49.902;8.680;2023-01-13T14:59:54;2;2;
30342;PMS5003;17145;49.902;8.680;2023-01-13T15:07:49;3;3;
30342;PMS5003;17145;49.902;8.680;2023-01-13T15:10:18;2;2;
30342;PMS5003;17145;49.902;8.680;2023-01-13T15:12:50;2;2;
30342;PMS5003;17145;49.902;8.680;2023-01-13T15:15:20;4;3;
30342;PMS5003;17145;49.902;8.680;2023-01-13T15:17:50;4;3;
30342;PMS5003;17145;49.902;8.680;2023-01-13T15:20:18;3;3;
30342;PMS5003;17145;49.902;8.680;2023-01-13T15:22:47;3;3;
30342;PMS5003;17145;49.902;8.680;2023-01-13T15:25:16;6;4;
30342;PMS5003;17145;49.902;8.680;2023-01-13T15:27:45;3;3;
30342;PMS5003;17145;49.902;8.680;2023-01-13T15:30:16;2;2;
30342;PMS5003;17145;49.902;8.680;2023-01-13T15:32:45;3;3;
30342;PMS5003;17145;49.902;8.680;2023-01-13T15:35:13;2;2;
30342;PMS5003;17145;49.902;8.680;2023-01-13T15:37:41;2;2;
30342;PMS5003;17145;49.902;8.680;2023-01-13T15:40:11;1;1;
30342;PMS5003;17145;49.902;8.680;2023-01-13T15:42:40;3;2;
30342;PMS5003;17145;49.902;8.680;2023-01-13T15:45:10;3;3;
30342;PMS5003;17145;49.902;8.680;2023-01-13T15:47:39;4;4;
30342;PMS5003;17145;49.902;8.680;2023-01-13T15:50:09;4;3;
30342;PMS5003;17145;49.902;8.680;2023-01-13T15:52:40;6;3;
30342;PMS5003;17145;49.902;8.680;2023-01-13T15:55:08;3;3;
30342;PMS5003;17145;49.902;8.680;2023-01-13T15:57:36;2;2;
30342;PMS5003;17145;49.902;8.680;2023-01-13T16:00:10;3;3;
30342;PMS5003;17145;49.902;8.680;2023-01-13T16:02:40;3;3;
30342;PMS5003;17145;49.902;8.680;2023-01-13T16:05:07;3;3;
30342;PMS5003;17145;49.902;8.680;2023-01-13T16:07:35;2;2;
30342;PMS5003;17145;49.902;8.680;2023-01-13T16:10:04;3;3;
30342;PMS5003;17145;49.902;8.680;2023-01-13T16:12:38;3;2;
30342;PMS5003;17145;49.902;8.680;2023-01-13T16:15:06;2;2;
30342;PMS5003;17145;49.902;8.680;2023-01-13T16:17:35;4;3;
30342;PMS5003;17145;49.902;8.680;2023-01-13T16:20:03;3;2;
30342;PMS5003;17145;49.902;8.680;2023-01-13T16:22:31;1;1;
30342;PMS5003;17145;49.902;8.680;2023-01-13T16:24:58;3;2;
30342;PMS5003;17145;49.902;8.680;2023-01-13T16:27:26;3;3;
30342;PMS5003;17145;49.902;8.680;2023-01-13T16:29:53;3;2;
30342;PMS5003;17145;49.902;8.680;2023-01-13T16:32:21;2;2;
30342;PMS5003;17145;49.902;8.680;2023-01-13T16:34:48;3;3;
30342;PMS5003;17145;49.902;8.680;2023-01-13T16:37:17;2;2;
30342;PMS5003;17145;49.902;8.680;2023-01-13T16:39:46;2;2;
30342;PMS5003;17145;49.902;8.680;2023-01-13T16:42:14;4;3;
30342;PMS5003;17145;49.902;8.680;2023-01-13T16:44:41;2;2;
30342;PMS5003;17145;49.902;8.680;2023-01-13T16:47:11;3;3;
30342;PMS5003;17145;49.902;8.680;2023-01-13T16:49:39;1;1;
30342;PMS5003;17145;49.902;8.680;2023-01-13T16:52:06;4;3;
30342;PMS5003;17145;49.902;8.680;2023-01-13T16:54:34;2;2;
30342;PMS5003;17145;49.902;8.680;2023-01-13T16:57:01;2;2;
30342;PMS5003;17145;49.902;8.680;2023-01-13T16:59:29;3;3;
30342;PMS5003;17145;49.902;8.680;2023-01-13T17:01:56;3;3;
30342;PMS5003;17145;49.902;8.680;2023-01-13T17:04:23;2;2;
30342;PMS5003;17145;49.902;8.680;2023-01-13T17:06:52;3;2;
30342;PMS5003;17145;49.902;8.680;2023-01-13T17:09:24;2;2;
30342;PMS5003;17145;49.902;8.680;2023-01-13T17:11:52;2;2;
30342;PMS5003;17145;49.902;8.680;2023-01-13T17:14:21;3;3;
30342;PMS5003;17145;49.902;8.680;2023-01-13T17:16:49;2;2;
30342;PMS5003;17145;49.902;8.680;2023-01-13T17:19:19;2;2;
30342;PMS5003;17145;49.902;8.680;2023-01-13T17:21:48;2;2;
30342;PMS5003;17145;49.902;8.680;2023-01-13T17:24:15;3;3;
30342;PMS5003;17145;49.902;8.680;2023-01-13T17:26:44;3;3;
30342;PMS5003;17145;49.902;8.680;2023-01-13T17:29:13;2;1;
30342;PMS5003;17145;49.902;8.680;2023-01-13T17:31:42;4;3;
30342;PMS5003;17145;49.902;8.680;2023-01-13T17:34:10;1;1;
30342;PMS5003;17145;49.902;8.680;2023-01-13T17:36:38;2;2;
30342;PMS5003;17145;49.902;8.680;2023-01-13T17:39:06;4;3;
30342;PMS5003;17145;49.902;8.680;2023-01-13T17:41:33;2;2;